Time;durP1;ratioP1;P1;durP2;ratioP2;P2;SDS_P1;SDS_P2;PMS_P1;PMS_P2;Temp;Humidity;BMP_temperature;BMP_pressure;BME280_temperature;BME280_humidity;BME280_pressure;Samples;Min_cycle;Max_cycle;Signal;HPM_P1;HPM_P2
2022/11/03 00:01:05;;;;;;;10.70;2.22;;;;;;;19.37;43.95;101334.53;5050086;28;20024;-71
2022/11/03 00:03:30;;;;;;;15.93;2.58;;;;;;;19.70;42.57;101337.63;5046674;28;20507;-71
2022/11/03 00:06:05;;;;;;;15.45;2.88;;;;;;;19.40;44.38;101334.38;5049797;28;20035;-72
2022/11/03 00:08:38;;;;;;;14.00;2.58;;;;;;;19.18;44.42;101329.06;5051027;28;20025;-71
2022/11/03 00:11:09;;;;;;;17.63;2.40;;;;;;;19.72;43.31;101326.97;5067843;28;20056;-71
2022/11/03 00:13:36;;;;;;;12.60;1.90;;;;;;;19.64;43.44;101317.50;5067519;28;20024;-72
2022/11/03 00:16:01;;;;;;;13.88;2.70;;;;;;;20.29;42.27;101314.00;5062384;28;20041;-71
2022/11/03 00:18:27;;;;;;;13.73;2.15;;;;;;;20.63;41.57;101308.06;5048040;28;20039;-71
2022/11/03 00:20:59;;;;;;;15.77;2.17;;;;;;;19.68;43.06;101320.91;5049076;28;20120;-71
2022/11/03 00:23:26;;;;;;;;;;;;;;;19.88;43.13;101313.97;5048200;28;20033;-71
2022/11/03 00:25:51;;;;;;;14.87;2.83;;;;;;;19.32;43.93;101313.50;5058747;28;19920;-71
2022/11/03 00:28:17;;;;;;;15.80;2.22;;;;;;;19.46;43.78;101305.84;5047305;28;20358;-72
2022/11/03 00:30:42;;;;;;;16.90;4.13;;;;;;;20.24;42.13;101297.44;5048349;28;20131;-71
2022/11/03 00:33:07;;;;;;;15.17;2.63;;;;;;;19.28;44.76;101309.25;5048281;28;20040;-71
2022/11/03 00:35:33;;;;;;;17.40;2.70;;;;;;;19.64;43.18;101301.59;5048341;28;20028;-71
2022/11/03 00:37:58;;;;;;;18.20;3.50;;;;;;;19.22;44.04;101293.56;5064076;28;20033;-71
2022/11/03 00:40:23;;;;;;;16.43;2.53;;;;;;;19.22;44.52;101293.56;5048584;28;20032;-71
2022/11/03 00:42:49;;;;;;;10.63;2.30;;;;;;;18.98;44.98;101305.06;5050100;28;20029;-71
2022/11/03 00:45:14;;;;;;;10.60;2.13;;;;;;;18.93;45.34;101292.91;5051555;28;20472;-71
2022/11/03 00:48:28;;;;;;;13.53;2.70;;;;;;;18.98;44.98;101296.25;5056683;28;20039;-71
2022/11/03 00:50:25;;;;;;;10.83;1.80;;;;;;;18.98;45.00;101288.31;5055334;28;20091;-71
2022/11/03 00:52:50;;;;;;;13.43;2.17;;;;;;;19.43;43.95;101286.59;5048132;28;20404;-71
2022/11/03 00:55:16;;;;;;;10.33;2.17;;;;;;;19.37;44.27;101287.69;5050206;28;20057;-71
2022/11/03 00:57:41;;;;;;;18.17;2.60;;;;;;;19.61;43.84;101284.97;5062802;28;20029;-71
2022/11/03 01:00:07;;;;;;;19.43;5.03;;;;;;;19.24;44.65;101286.44;5054759;28;20415;-71
2022/11/03 01:02:32;;;;;;;15.90;2.27;;;;;;;19.49;43.92;101287.22;5047832;28;20372;-71
2022/11/03 01:07:41;;;;;;;12.23;2.40;;;;;;;18.76;45.84;101275.84;5049308;28;20102;-72
2022/11/03 01:10:08;;;;;;;12.90;2.37;;;;;;;19.30;44.73;101270.28;5051645;28;20028;-71
2022/11/03 01:12:33;;;;;;;13.13;2.00;;;;;;;19.03;45.24;101264.28;5048567;28;20029;-71
2022/11/03 01:14:59;;;;;;;15.20;2.53;;;;;;;18.89;45.88;101259.50;5051367;28;20361;-71
2022/11/03 01:17:26;;;;;;;12.17;2.50;;;;;;;19.27;45.45;101265.13;5052042;28;20032;-72
2022/11/03 01:19:53;;;;;;;10.87;2.20;;;;;;;19.22;45.00;101260.00;5064417;28;20502;-71
2022/11/03 01:22:19;;;;;;;12.10;2.17;;;;;;;18.54;46.22;101264.31;5057951;28;20025;-71
2022/11/03 01:24:46;;;;;;;15.63;2.57;;;;;;;18.19;47.10;101254.09;5049917;28;20606;-72
2022/11/03 01:27:18;;;;;;;12.10;1.70;;;;;;;19.03;45.20;101257.22;5049215;28;20060;-70
2022/11/03 01:29:44;;;;;;;11.70;1.85;;;;;;;18.62;46.69;101252.53;5044909;28;20025;-71
2022/11/03 01:32:10;;;;;;;19.97;2.80;;;;;;;18.64;46.41;101252.47;5046946;28;20531;-71
2022/11/03 01:34:36;;;;;;;13.40;2.00;;;;;;;18.94;45.78;101250.47;5051361;28;20028;-71
2022/11/03 01:37:02;;;;;;;14.77;3.10;;;;;;;18.97;46.40;101242.44;5055644;28;20457;-71
2022/11/03 01:39:27;;;;;;;11.90;2.37;;;;;;;18.66;46.92;101237.41;5052007;28;20392;-71
2022/11/03 01:41:53;;;;;;;14.23;2.67;;;;;;;18.97;45.92;101244.19;5060877;28;20029;-71
2022/11/03 01:44:24;;;;;;;13.13;2.30;;;;;;;18.66;46.57;101232.09;5048393;28;20112;-71
2022/11/03 01:46:59;;;;;;;16.10;2.60;;;;;;;18.59;46.92;101226.16;5052799;28;20025;-71
2022/11/03 01:49:29;;;;;;;14.13;2.07;;;;;;;18.48;47.11;101229.22;5055392;28;20091;-71
2022/11/03 01:52:21;;;;;;;19.67;2.53;;;;;;;18.34;47.18;101220.94;5057161;28;20025;-71
2022/11/03 01:54:52;;;;;;;12.47;2.07;;;;;;;17.72;49.09;101217.75;5033237;28;20044;-71
2022/11/03 01:57:23;;;;;;;18.87;2.80;;;;;;;19.33;45.35;101210.09;5052937;28;20099;-71
2022/11/03 01:59:50;;;;;;;10.47;1.93;;;;;;;18.91;46.13;101216.16;5050739;28;20032;-71
2022/11/03 02:02:16;;;;;;;15.23;2.40;;;;;;;18.34;47.61;101210.34;5049511;28;20022;-71
2022/11/03 02:04:42;;;;;;;10.87;2.50;;;;;;;18.22;48.61;101216.09;5067123;28;20489;-70
2022/11/03 02:07:18;;;;;;;14.57;2.83;;;;;;;18.34;48.83;101220.94;5051370;28;20111;-71
2022/11/03 02:09:43;;;;;;;8.03;2.23;;;;;;;18.32;48.79;101214.81;5053073;28;20028;-71
2022/11/03 02:12:09;;;;;;;14.57;2.13;;;;;;;18.68;48.00;101202.91;5049187;28;20029;-71
2022/11/03 02:14:41;;;;;;;19.50;2.73;;;;;;;18.26;48.71;101197.38;5051681;28;20025;-71
2022/11/03 02:17:09;;;;;;;11.43;2.20;;;;;;;19.24;46.39;101191.06;5036148;28;20486;-71
2022/11/03 02:19:43;;;;;;;13.90;1.80;;;;;;;18.56;47.77;101185.72;5063220;28;20029;-71
2022/11/03 02:22:46;;;;;;;14.00;2.27;;;;;;;18.76;47.35;101179.66;5053648;28;20033;-71
2022/11/03 02:25:42;;;;;;;13.15;1.88;;;;;;;18.79;47.46;101169.81;5050662;28;20115;-71
2022/11/03 02:28:08;;;;;;;17.50;3.00;;;;;;;18.64;48.31;101170.38;5048448;28;20044;-71
2022/11/03 02:30:42;;;;;;;12.63;2.27;;;;;;;18.18;49.03;101173.00;5051415;28;20025;-70
2022/11/03 02:33:26;;;;;;;12.00;2.30;;;;;;;19.49;46.79;101153.78;5058310;28;20025;-71
2022/11/03 02:35:58;;;;;;;15.10;2.57;;;;;;;19.25;46.88;101150.38;5050531;28;20496;-71
2022/11/03 02:38:27;;;;;;;16.08;2.58;;;;;;;19.03;47.54;101143.31;5060759;28;20116;-71
2022/11/03 02:40:57;;;;;;;14.37;2.40;;;;;;;19.67;46.70;101136.22;5050197;28;20062;-71
2022/11/03 02:43:24;;;;;;;12.13;2.20;;;;;;;19.19;47.26;101134.72;5049180;28;20017;-72
2022/11/03 02:45:51;;;;;;;17.13;2.40;;;;;;;19.28;47.34;101129.06;5052250;28;20028;-71
2022/11/03 02:48:17;;;;;;;8.43;1.93;;;;;;;19.27;47.17;101132.63;5051854;28;20108;-71
2022/11/03 02:50:43;;;;;;;13.17;1.90;;;;;;;19.82;45.94;101127.66;5050271;28;20476;-71
2022/11/03 02:53:13;;;;;;;10.07;2.10;;;;;;;19.37;46.60;101109.25;5048605;28;20029;-71
2022/11/03 02:55:45;;;;;;;14.98;1.88;;;;;;;19.38;47.31;101098.56;5050942;28;20037;-71
2022/11/03 02:59:01;;;;;;;16.60;3.33;;;;;;;19.45;46.81;101094.75;5051001;28;20496;-71
2022/11/03 03:01:45;;;;;;;15.83;2.37;;;;;;;18.75;48.11;101109.97;5019947;28;20287;-71
2022/11/03 03:04:13;;;;;;;11.93;2.67;;;;;;;19.19;47.42;101100.28;5049924;28;20047;-71
2022/11/03 03:06:45;;;;;;;9.80;1.98;;;;;;;19.59;46.87;101090.63;5050015;28;20112;-71
2022/11/03 03:09:23;;;;;;;8.87;2.40;;;;;;;19.52;46.77;101086.53;5051206;28;20110;-71
2022/11/03 03:11:52;;;;;;;14.13;2.03;;;;;;;19.28;47.02;101084.00;5050719;28;20032;-71
2022/11/03 03:14:23;;;;;;;11.00;2.20;;;;;;;19.75;46.10;101096.13;5051699;28;20021;-71
2022/11/03 03:16:48;;;;;;;9.83;2.23;;;;;;;19.24;47.20;101085.06;5056816;28;20043;-71
2022/11/03 03:19:22;;;;;;;13.57;2.00;;;;;;;19.97;45.94;101077.47;5055956;28;20025;-71
2022/11/03 03:21:51;;;;;;;12.63;2.47;;;;;;;19.63;46.88;101076.28;5050964;28;20039;-71
2022/11/03 03:24:57;;;;;;;12.35;2.40;;;;;;;19.93;45.77;101073.25;5052738;28;20025;-71
2022/11/03 03:27:26;;;;;;;12.15;2.00;;;;;;;19.79;46.19;101066.72;5019364;28;20050;-71
2022/11/03 03:29:58;;;;;;;11.43;1.90;;;;;;;19.46;46.45;101075.25;5052181;28;20043;-70
2022/11/03 03:32:27;;;;;;;13.80;2.90;;;;;;;19.27;47.47;101071.66;5049850;28;20028;-71
2022/11/03 03:34:54;;;;;;;19.53;2.07;;;;;;;19.74;46.10;101073.16;5051906;28;20108;-71
2022/11/03 03:37:23;;;;;;;6.43;1.55;;;;;;;19.92;46.26;101067.09;5050096;28;20075;-71
2022/11/03 03:39:54;;;;;;;14.93;2.40;;;;;;;19.56;46.95;101069.56;5051816;28;20021;-71
2022/11/03 03:42:22;;;;;;;15.50;2.60;;;;;;;19.31;47.08;101067.97;5052363;28;20021;-71
2022/11/03 03:44:49;;;;;;;17.37;2.40;;;;;;;19.93;45.76;101063.47;5047373;28;20044;-71
2022/11/03 03:47:35;;;;;;;13.10;1.83;;;;;;;20.21;45.54;101059.56;5044762;28;20087;-71
2022/11/03 03:50:00;;;;;;;9.80;1.90;;;;;;;19.80;46.29;101057.88;5050213;28;20047;-71
2022/11/03 03:52:27;;;;;;;13.27;2.00;;;;;;;19.99;46.28;101054.41;5050153;28;20043;-71
2022/11/03 03:54:54;;;;;;;11.70;1.63;;;;;;;19.76;46.14;101050.13;5050501;28;20021;-72
2022/11/03 03:57:22;;;;;;;15.47;2.30;;;;;;;19.49;46.95;101051.28;5046052;28;20052;-71
2022/11/03 03:59:48;;;;;;;15.30;2.53;;;;;;;19.73;46.42;101047.56;5066854;28;20079;-71
2022/11/03 04:02:14;;;;;;;14.47;2.50;;;;;;;19.54;47.20;101050.22;5049008;28;20492;-71
2022/11/03 04:04:40;;;;;;;17.13;2.60;;;;;;;19.59;47.12;101034.94;5051326;28;20458;-71
2022/11/03 04:09:50;;;;;;;10.40;2.73;;;;;;;20.08;46.23;101029.22;5072910;28;20495;-72
2022/11/03 04:23:14;;;;;;;10.52;2.05;;;;;;;18.99;48.92;101033.09;5050718;28;20459;-71
2022/11/03 04:25:41;;;;;;;11.73;2.07;;;;;;;19.55;47.50;101030.72;5065097;28;20059;-72
2022/11/03 04:28:11;;;;;;;13.07;2.13;;;;;;;19.32;48.26;101019.34;5060941;28;20035;-71
2022/11/03 04:30:36;;;;;;;9.27;2.40;;;;;;;19.09;48.40;101021.19;5056790;28;20381;-71
2022/11/03 04:33:04;;;;;;;9.97;2.00;;;;;;;19.17;48.64;101017.38;5050392;28;20032;-71
2022/11/03 04:35:29;;;;;;;10.93;2.13;;;;;;;19.57;47.93;101012.97;5065765;28;20033;-71
2022/11/03 04:37:59;;;;;;;10.67;2.40;;;;;;;18.85;48.84;101003.66;5050335;28;20036;-71
2022/11/03 04:40:24;;;;;;;17.63;2.33;;;;;;;19.32;48.04;101000.78;5055976;28;21373;-71
2022/11/03 04:42:50;;;;;;;9.37;2.07;;;;;;;18.81;50.15;100997.63;5059620;28;20447;-71
2022/11/03 04:45:29;;;;;;;10.50;1.97;;;;;;;19.22;48.70;100992.38;5047368;28;20028;-71
2022/11/03 04:47:57;;;;;;;12.50;2.23;;;;;;;18.82;49.39;100994.91;5066697;28;20055;-71
2022/11/03 04:50:23;;;;;;;16.30;2.17;;;;;;;18.57;50.52;100996.84;5049823;28;20530;-71
2022/11/03 04:52:57;;;;;;;11.97;2.07;;;;;;;19.42;48.97;100982.69;5048832;28;20021;-71
2022/11/03 04:55:23;;;;;;;16.10;2.47;;;;;;;19.42;48.60;100988.84;5046518;28;20036;-71
2022/11/03 04:57:59;;;;;;;9.83;2.33;;;;;;;18.87;49.83;100985.94;5048982;28;20029;-71
2022/11/03 05:00:24;;;;;;;5.43;1.93;;;;;;;19.37;49.43;100982.91;5047566;28;20029;-72
2022/11/03 05:02:50;;;;;;;11.97;2.17;;;;;;;19.53;48.66;100974.25;5047255;28;20036;-71
2022/11/03 05:05:24;;;;;;;15.37;2.20;;;;;;;19.46;48.39;100974.53;5047083;28;20036;-71
2022/11/03 05:07:55;;;;;;;21.87;3.90;;;;;;;19.13;49.68;100972.44;5044277;28;20440;-71
2022/11/03 05:10:25;;;;;;;15.52;2.75;;;;;;;18.58;50.85;100965.03;5046370;28;20378;-71
2022/11/03 05:12:52;;;;;;;10.33;1.90;;;;;;;19.56;48.55;100960.84;5044480;28;20032;-71
2022/11/03 05:15:28;;;;;;;11.83;2.70;;;;;;;18.86;51.53;100957.72;5044771;28;20048;-70
2022/11/03 05:17:55;;;;;;;11.70;1.97;;;;;;;19.14;49.54;100942.38;5060410;28;20039;-71
2022/11/03 05:20:29;;;;;;;9.30;2.10;;;;;;;19.58;48.67;100945.75;5046348;28;20060;-71
2022/11/03 05:22:54;;;;;;;13.23;2.00;;;;;;;18.78;50.59;100950.97;5043708;28;20033;-70
2022/11/03 05:25:44;;;;;;;12.43;2.30;;;;;;;19.18;50.37;100943.13;5045092;28;20126;-71
2022/11/03 05:28:34;;;;;;;13.10;2.20;;;;;;;19.47;49.39;100928.53;5045974;28;20032;-71
2022/11/03 05:31:01;;;;;;;12.55;2.08;;;;;;;18.87;51.39;100927.66;5045880;28;20020;-72
2022/11/03 05:33:35;;;;;;;14.47;2.80;;;;;;;18.51;52.16;100926.50;5047678;28;20041;-70
2022/11/03 05:36:12;;;;;;;13.10;2.53;;;;;;;18.79;51.95;100915.63;5061485;28;20290;-72
2022/11/03 05:38:37;;;;;;;9.25;2.47;;;;;;;19.11;51.43;100921.31;5043838;28;20557;-71
2022/11/03 05:41:13;;;;;;;14.67;2.77;;;;;;;18.57;52.38;100926.25;5049101;28;20040;-71
2022/11/03 05:43:39;;;;;;;11.68;2.25;;;;;;;18.79;52.14;100906.81;5045097;28;20033;-72
2022/11/03 05:46:04;;;;;;;17.85;2.83;;;;;;;18.66;52.29;100911.78;5065398;28;20102;-71
2022/11/03 05:48:30;;;;;;;8.52;2.13;;;;;;;18.92;51.88;100909.81;5044730;28;20059;-71
2022/11/03 05:50:59;;;;;;;8.80;2.05;;;;;;;19.51;50.03;100897.47;5049604;28;20040;-71
2022/11/03 05:53:25;;;;;;;10.63;2.03;;;;;;;18.74;51.65;100899.06;5047144;28;20029;-71
2022/11/03 05:55:50;;;;;;;11.02;2.38;;;;;;;19.05;50.68;100895.09;5070343;28;20489;-71
2022/11/03 05:58:26;;;;;;;13.68;2.30;;;;;;;19.98;49.01;100893.50;5058334;28;20033;-70
2022/11/03 06:00:52;;;;;;;7.10;1.98;;;;;;;19.98;49.17;100904.97;5046757;28;20477;-71
2022/11/03 06:03:24;;;;;;;14.70;2.15;;;;;;;19.24;50.37;100899.59;5048424;28;20029;-70
2022/11/03 06:05:50;;;;;;;10.85;2.28;;;;;;;20.00;49.57;100899.59;5047801;28;20025;-70
2022/11/03 06:08:23;;;;;;;8.20;2.33;;;;;;;19.67;49.26;100881.66;5046229;28;20029;-71
2022/11/03 06:10:52;;;;;;;16.73;2.25;;;;;;;19.36;50.59;100887.53;5048388;28;20025;-71
2022/11/03 06:13:25;;;;;;;11.98;2.20;;;;;;;19.66;49.42;100885.28;5046413;28;20025;-71
2022/11/03 06:16:17;;;;;;;11.23;2.28;;;;;;;19.82;49.88;100888.94;5047292;28;20033;-71
2022/11/03 06:18:43;;;;;;;11.90;2.40;;;;;;;19.17;52.06;100882.25;5043019;28;20488;-71
2022/11/03 06:21:12;;;;;;;11.57;2.43;;;;;;;19.40;50.63;100874.09;5044714;28;20028;-71
2022/11/03 06:23:39;;;;;;;10.30;2.30;;;;;;;19.53;50.40;100873.53;5051769;28;20029;-72
2022/11/03 06:26:15;;;;;;;16.50;2.40;;;;;;;19.58;50.47;100872.38;5051195;28;20044;-71
2022/11/03 06:28:40;;;;;;;15.40;2.17;;;;;;;19.54;49.65;100869.94;5050507;28;20017;-71
2022/11/03 06:31:17;;;;;;;9.05;2.10;;;;;;;18.97;52.03;100865.44;5051999;28;20465;-71
2022/11/03 06:33:43;;;;;;;12.45;1.80;;;;;;;19.58;50.88;100863.56;5070462;28;20088;-71
2022/11/03 06:36:20;;;;;;;9.23;2.03;;;;;;;19.64;50.01;100858.81;5047687;28;20029;-71
2022/11/03 06:38:53;;;;;;;12.30;2.20;;;;;;;19.93;49.53;100853.09;5050075;28;20029;-71
2022/11/03 06:41:28;;;;;;;10.32;2.20;;;;;;;20.11;49.03;100853.97;5047929;28;20802;-71
2022/11/03 06:43:54;;;;;;;10.45;2.20;;;;;;;20.21;49.14;100863.19;5054410;28;20103;-71
2022/11/03 06:46:25;;;;;;;12.77;2.47;;;;;;;19.42;50.25;100855.47;5053792;28;20606;-72
2022/11/03 06:48:59;;;;;;;10.50;2.13;;;;;;;19.82;49.81;100851.81;5049528;28;20449;-70
2022/11/03 06:51:29;;;;;;;10.38;2.65;;;;;;;20.26;48.57;100853.19;5049870;28;20021;-70
2022/11/03 06:53:58;;;;;;;7.85;2.30;;;;;;;20.11;49.11;100854.84;5066297;28;20358;-72
2022/11/03 06:56:27;;;;;;;11.82;2.20;;;;;;;19.52;49.86;100850.59;5043850;28;20053;-70
2022/11/03 06:58:55;;;;;;;11.10;2.08;;;;;;;19.94;49.70;100838.88;5051717;28;20544;-71
2022/11/03 07:01:23;;;;;;;12.50;2.42;;;;;;;19.80;50.06;100845.72;5052422;28;20033;-71
2022/11/03 07:03:51;;;;;;;10.20;2.25;;;;;;;19.99;49.23;100850.13;5063012;28;20062;-71
2022/11/03 07:06:21;;;;;;;13.00;2.33;;;;;;;20.13;48.87;100850.31;5057835;28;20037;-71
2022/11/03 07:08:55;;;;;;;9.45;2.10;;;;;;;19.80;49.63;100845.72;5048522;28;20060;-71
2022/11/03 07:11:30;;;;;;;9.15;2.03;;;;;;;20.06;48.53;100845.38;5046125;28;20107;-71
2022/11/03 07:14:01;;;;;;;14.00;2.42;;;;;;;20.11;48.37;100849.53;5052423;28;20032;-72
2022/11/03 07:16:30;;;;;;;9.00;2.38;;;;;;;19.69;50.59;100836.53;5057481;28;20036;-71
2022/11/03 07:18:59;;;;;;;9.35;2.22;;;;;;;19.63;51.43;100833.25;5051381;28;20062;-71
2022/11/03 07:21:31;;;;;;;8.90;2.20;;;;;;;20.24;49.31;100835.66;5049465;28;20083;-72
2022/11/03 07:24:00;;;;;;;11.68;2.55;;;;;;;19.91;50.45;100836.41;5053392;28;20031;-71
2022/11/03 07:26:26;;;;;;;11.50;2.55;;;;;;;19.37;51.02;100825.66;5051926;28;20669;-71
2022/11/03 07:28:52;;;;;;;13.85;2.58;;;;;;;19.54;51.82;100839.00;5050177;28;20033;-71
2022/11/03 07:31:21;;;;;;;9.88;1.90;;;;;;;19.78;51.12;100839.63;5061489;28;20036;-71
2022/11/03 07:33:47;;;;;;;10.85;2.13;;;;;;;19.81;51.03;100836.84;5056957;28;20067;-71
2022/11/03 07:36:18;;;;;;;17.30;3.13;;;;;;;20.08;49.61;100831.09;5052369;28;20021;-71
2022/11/03 07:38:50;;;;;;;14.73;2.63;;;;;;;20.62;48.50;100827.50;5068123;28;20012;-71
2022/11/03 07:41:19;;;;;;;7.40;2.17;;;;;;;20.03;49.90;100825.19;5051288;28;20032;-72
2022/11/03 07:43:57;;;;;;;12.43;2.60;;;;;;;19.97;50.76;100830.78;5059455;28;20020;-71
2022/11/03 07:46:24;;;;;;;13.15;2.38;;;;;;;19.88;51.08;100829.44;5044477;28;20025;-71
2022/11/03 07:49:02;;;;;;;13.70;2.30;;;;;;;19.81;50.38;100834.19;5060200;28;20021;-73
2022/11/03 07:51:33;;;;;;;11.52;2.60;;;;;;;20.82;48.33;100830.00;5050169;28;20037;-72
2022/11/03 07:54:07;;;;;;;10.85;2.50;;;;;;;20.28;49.96;100824.78;5031875;28;20029;-72
2022/11/03 07:56:37;;;;;;;11.07;2.20;;;;;;;20.39;49.71;100826.91;5046362;28;20412;-71
2022/11/03 07:59:10;;;;;;;13.27;2.20;;;;;;;19.65;51.64;100819.91;5049513;28;20040;-70
2022/11/03 08:01:53;;;;;;;13.63;2.40;;;;;;;20.20;50.24;100807.56;5048938;28;20033;-70
2022/11/03 08:04:25;;;;;;;10.73;2.20;;;;;;;19.55;52.05;100808.03;5047265;28;20599;-71
2022/11/03 08:06:50;;;;;;;7.85;2.10;;;;;;;19.77;51.85;100803.41;5044275;28;20336;-71
2022/11/03 08:09:16;;;;;;;8.38;2.30;;;;;;;19.92;51.30;100811.56;5052375;28;20532;-71
2022/11/03 08:11:42;;;;;;;11.23;2.38;;;;;;;20.06;51.44;100798.50;5050576;28;20429;-72
2022/11/03 08:14:08;;;;;;;10.18;2.78;;;;;;;20.72;49.03;100788.94;5054742;28;20068;-71
2022/11/03 08:16:33;;;;;;;10.18;2.47;;;;;;;20.40;49.73;100791.47;5047798;28;20024;-71
2022/11/03 08:18:58;;;;;;;12.25;3.30;;;;;;;20.31;50.05;100778.66;5046129;28;20108;-71
2022/11/03 08:21:24;;;;;;;13.88;2.63;;;;;;;20.49;50.00;100775.03;5047824;28;20061;-72
2022/11/03 08:23:49;;;;;;;11.18;2.92;;;;;;;20.17;50.91;100768.75;5049741;28;20079;-72
2022/11/03 08:59:46;;;;;;;15.70;2.63;;;;;;;20.83;50.03;100682.13;5083974;27;20769;-71
2022/11/03 09:02:11;;;;;;;11.30;2.35;;;;;;;20.69;49.56;100674.94;5109060;28;20033;-71
2022/11/03 09:04:37;;;;;;;10.95;2.65;;;;;;;19.79;52.65;100684.00;5066445;28;20582;-72
2022/11/03 09:07:02;;;;;;;13.27;2.30;;;;;;;20.28;50.81;100675.34;5067669;28;20025;-71
2022/11/03 09:09:27;;;;;;;16.10;2.65;;;;;;;20.27;51.22;100661.19;5065702;28;20036;-71
2022/11/03 09:11:53;;;;;;;11.73;2.47;;;;;;;20.59;49.83;100663.03;5066483;28;20119;-71
2022/11/03 09:14:18;;;;;;;8.02;2.15;;;;;;;21.33;47.89;100664.25;5081032;28;20107;-71
2022/11/03 09:16:44;;;;;;;15.63;2.53;;;;;;;21.34;47.95;100661.50;5066667;28;20351;-71
2022/11/03 09:19:09;;;;;;;14.85;2.80;;;;;;;21.06;49.41;100656.94;5067868;28;20029;-71
2022/11/03 09:21:34;;;;;;;7.70;1.80;;;;;;;20.75;48.96;100642.69;5079366;28;20103;-71
2022/11/03 09:24:00;;;;;;;17.20;2.72;;;;;;;20.42;49.44;100645.38;5067479;28;20088;-72
2022/11/03 09:26:25;;;;;;;20.02;2.88;;;;;;;20.97;48.91;100630.88;5065001;28;20032;-71
2022/11/03 09:28:51;;;;;;;14.40;2.72;;;;;;;20.75;49.17;100632.06;5083474;28;20046;-71
2022/11/03 09:31:18;;;;;;;12.15;2.33;;;;;;;21.75;47.17;100630.78;5069656;28;20037;-71
2022/11/03 09:33:43;;;;;;;8.23;2.28;;;;;;;21.71;46.38;100615.09;5066409;28;20021;-71
2022/11/03 09:36:09;;;;;;;9.85;2.33;;;;;;;21.23;46.68;100610.78;5097696;28;20120;-72
2022/11/03 09:38:34;;;;;;;12.55;2.78;;;;;;;22.41;44.99;100604.59;5064254;28;20029;-71
2022/11/03 09:41:01;;;;;;;15.35;2.85;;;;;;;21.37;46.82;100604.63;5066870;28;20032;-71
2022/11/03 09:43:26;;;;;;;13.48;2.72;;;;;;;22.13;45.95;100603.66;5063413;28;20028;-71
2022/11/03 09:45:53;;;;;;;10.35;2.10;;;;;;;21.44;46.44;100608.63;5067161;28;20091;-71
2022/11/03 09:48:18;;;;;;;15.25;2.40;;;;;;;21.65;45.56;100601.22;5058690;28;20481;-71
2022/11/03 09:50:52;;;;;;;15.07;2.17;;;;;;;21.22;46.66;100602.88;5054660;28;20058;-71
2022/11/03 09:53:18;;;;;;;15.02;2.95;;;;;;;21.81;45.58;100595.81;5063519;28;20028;-70
2022/11/03 09:55:44;;;;;;;10.20;2.33;;;;;;;22.09;44.69;100587.94;5067655;28;20469;-71
2022/11/03 09:58:13;;;;;;;12.95;2.47;;;;;;;21.28;46.64;100586.56;5065095;28;20052;-71
2022/11/03 10:00:39;;;;;;;10.90;2.28;;;;;;;21.46;45.44;100584.63;5049261;28;20043;-72
2022/11/03 10:03:06;;;;;;;14.93;2.35;;;;;;;21.52;45.72;100579.81;5051772;28;20128;-71
2022/11/03 10:05:32;;;;;;;10.82;2.33;;;;;;;21.73;44.91;100574.16;5042180;28;20472;-70
2022/11/03 10:08:05;;;;;;;7.07;2.08;;;;;;;22.03;44.10;100575.88;5044504;28;20131;-69
2022/11/03 10:10:32;;;;;;;8.00;2.00;;;;;;;22.00;44.80;100573.41;5050266;28;20032;-69
2022/11/03 10:12:59;;;;;;;7.50;2.30;;;;;;;21.28;45.99;100573.28;5045904;28;20493;-69
2022/11/03 10:15:25;;;;;;;11.63;2.10;;;;;;;21.42;45.65;100576.00;5050679;28;20052;-69
2022/11/03 10:17:52;;;;;;;10.20;2.00;;;;;;;22.42;43.36;100566.38;5045861;28;21650;-68
2022/11/03 10:20:20;;;;;;;14.52;2.30;;;;;;;21.80;44.35;100558.69;5046488;28;20102;-69
2022/11/03 10:22:49;;;;;;;9.57;2.53;;;;;;;20.93;46.88;100555.81;5054346;28;20063;-69
2022/11/03 10:25:28;;;;;;;8.18;2.17;;;;;;;22.15;44.82;100537.84;5049681;28;20032;-69
2022/11/03 10:28:21;;;;;;;10.68;2.22;;;;;;;22.17;44.18;100545.75;5052095;28;20025;-69
2022/11/03 10:30:52;;;;;;;14.30;2.17;;;;;;;22.51;43.14;100541.78;5049900;28;20119;-69
2022/11/03 10:33:27;;;;;;;12.20;2.13;;;;;;;22.46;43.02;100522.63;5066975;28;20046;-68
2022/11/03 10:36:00;;;;;;;10.20;2.50;;;;;;;22.25;43.77;100521.31;5041071;28;20021;-69
2022/11/03 10:38:30;;;;;;;9.93;2.08;;;;;;;22.70;43.01;100519.31;5050139;28;20025;-69
2022/11/03 10:41:20;;;;;;;9.65;2.45;;;;;;;21.65;44.61;100509.94;5054644;28;20043;-69
2022/11/03 10:44:03;;;;;;;11.63;3.70;;;;;;;22.96;42.63;100498.06;5047710;28;20045;-69
2022/11/03 10:46:29;;;;;;;11.05;1.75;;;;;;;21.36;44.69;100499.25;5050012;28;20024;-69
2022/11/03 10:49:13;;;;;;;6.72;2.15;;;;;;;22.99;42.05;100489.84;5051133;28;20078;-69
2022/11/03 10:51:40;;;;;;;10.50;2.72;;;;;;;22.28;43.17;100486.50;5051903;28;20098;-69
2022/11/03 10:54:11;;;;;;;10.57;2.10;;;;;;;22.42;42.48;100483.84;5048758;28;20033;-69
2022/11/03 10:56:37;;;;;;;16.42;2.08;;;;;;;22.42;42.75;100489.16;5050369;28;20025;-69
2022/11/03 10:59:02;;;;;;;4.18;1.50;;;;;;;21.57;44.37;100480.31;5051128;28;20051;-69
2022/11/03 11:01:28;;;;;;;10.50;1.75;;;;;;;21.60;43.81;100469.50;5049377;28;20357;-69
2022/11/03 11:03:54;;;;;;;7.70;2.63;;;;;;;22.50;42.65;100468.22;5049488;28;20029;-69
2022/11/03 11:06:20;;;;;;;8.50;2.10;;;;;;;21.62;44.49;100473.75;5050227;28;20382;-69
2022/11/03 11:08:46;;;;;;;10.25;2.55;;;;;;;21.99;43.83;100475.91;5048691;28;20036;-69
2022/11/03 11:11:15;;;;;;;11.05;1.95;;;;;;;21.61;44.73;100465.88;5050238;28;20033;-69
2022/11/03 11:13:40;;;;;;;8.93;2.40;;;;;;;21.61;44.45;100468.53;5082649;28;20043;-69
2022/11/03 11:16:44;;;;;;;7.63;2.03;;;;;;;21.00;45.77;100463.31;5051974;28;20028;-69
2022/11/03 11:19:10;;;;;;;9.73;1.85;;;;;;;21.62;44.95;100451.63;5049620;28;20028;-69
2022/11/03 11:21:38;;;;;;;9.95;1.92;;;;;;;22.37;43.20;100456.66;5047706;28;20047;-69
2022/11/03 11:24:09;;;;;;;7.80;2.22;;;;;;;21.72;43.35;100452.78;5061082;28;20071;-69
2022/11/03 11:26:34;;;;;;;13.68;2.88;;;;;;;21.40;44.21;100439.63;5052266;28;20021;-69
2022/11/03 11:29:09;;;;;;;6.07;1.58;;;;;;;21.51;44.18;100434.53;5048753;28;20375;-69
2022/11/03 11:31:42;;;;;;;10.00;2.28;;;;;;;22.32;42.84;100429.44;5046848;28;20028;-69
2022/11/03 11:34:08;;;;;;;8.30;1.50;;;;;;;22.30;43.05;100426.88;5047640;28;20426;-69
2022/11/03 11:36:34;;;;;;;12.35;2.42;;;;;;;21.76;43.62;100419.72;5046216;28;20025;-69
2022/11/03 11:39:00;;;;;;;6.60;1.30;;;;;;;22.95;41.44;100405.75;5049410;28;20469;-69
2022/11/03 11:42:03;;;;;;;13.77;2.30;;;;;;;22.06;43.02;100402.72;5048345;28;20059;-69
2022/11/03 11:45:05;;;;;;;5.35;1.50;;;;;;;21.88;43.23;100403.94;5047322;28;20018;-68
2022/11/03 11:47:43;;;;;;;8.25;1.80;;;;;;;21.60;43.83;100400.38;5030723;28;20688;-69
2022/11/03 11:50:11;;;;;;;7.82;2.05;;;;;;;21.83;43.20;100385.56;5043781;28;20033;-69
2022/11/03 11:52:58;;;;;;;3.28;1.52;;;;;;;22.77;41.39;100382.06;5045900;28;20028;-70
2022/11/03 11:55:23;;;;;;;9.73;1.95;;;;;;;22.27;42.25;100372.97;5054083;28;20035;-69
2022/11/03 11:57:50;;;;;;;8.25;1.90;;;;;;;21.89;43.09;100366.56;5053384;28;20445;-70
2022/11/03 12:00:22;;;;;;;6.30;1.88;;;;;;;22.10;43.32;100366.97;5051210;28;20035;-70
2022/11/03 12:02:48;;;;;;;7.20;1.88;;;;;;;21.73;43.97;100358.72;5050535;28;20426;-69
2022/11/03 12:05:20;;;;;;;4.25;1.83;;;;;;;22.01;43.10;100351.63;5048757;28;20325;-69
2022/11/03 12:07:45;;;;;;;5.88;1.60;;;;;;;22.22;42.92;100348.50;5046805;28;20029;-69
2022/11/03 12:10:21;;;;;;;6.55;1.65;;;;;;;22.53;42.24;100331.31;5044418;28;20047;-69
2022/11/03 12:12:47;;;;;;;7.32;1.83;;;;;;;22.56;42.33;100314.28;5046965;28;20029;-69
2022/11/03 12:15:50;;;;;;;8.82;2.47;;;;;;;22.81;41.40;100308.97;5035807;28;20021;-68
2022/11/03 12:18:28;;;;;;;9.13;2.38;;;;;;;22.16;42.61;100301.84;5051796;28;20029;-69
2022/11/03 12:20:54;;;;;;;4.70;1.67;;;;;;;22.14;42.58;100312.59;5058752;28;20127;-69
2022/11/03 12:23:37;;;;;;;4.55;1.90;;;;;;;22.48;41.76;100315.66;5046111;28;20354;-68